Tropical Cyclones
[Index]
Main Index Home Page Stock Weather Photos Extreme Storms Discussion Storm News and Storm Chasing Reports Tropical Cyclones / Hurricanes / Typhoons Weather Data and Links Wild Fires / Bushfires Weather Observation Techniques Weather Picture Catalogue Tornado Pictures and Reports Stock Video Footage and DVDs for sale
Season 1996-1997 Tropical Cyclone 199727 Track Map
Season 1996-1997 Summaries: [BoM-AU] [JTWC-AU] [JTWC-SIO] [JTWC-SPAC] [JTWC-SH]
<<- Previous TC | JTWC 1996-1997 Season | Next TC ->>

click for intensity scale information  Lat/long Grid: Show Hide

 Date Labels: Show Hide

Joint Typhoon Warning Centre Cyclone Data

Name: 199727

16 Feb 1997 12:00 UTC to 26 Feb 1997 06:00 UTC

    date/time    lat    long     hPa   cat  kts
1997-02-16 12   12.1   103.3                  20          
1997-02-16 18   12.3   105.1                  25          
1997-02-17 00   12.7   106.8                  25          
1997-02-17 06   13.5   108.1                  25          
1997-02-17 12   14.3   109.1                  25          
1997-02-17 18   14.9   110.2                  25          
1997-02-18 00   15.3   111.3                  25          
1997-02-18 06   15.6   112.2                  25          
1997-02-18 12   15.8   112.9                  25          
1997-02-18 18   16.0   113.4                  25          
1997-02-19 00   16.2   113.7                  30          
1997-02-19 06   16.5   113.8                  35          
1997-02-19 12   16.8   114.0                  35          
1997-02-19 18   17.1   114.4            1     40          
1997-02-20 00   17.4   114.8            1     45          
1997-02-20 06   17.7   115.2            1     45          
1997-02-20 12   18.0   115.6            1     45          
1997-02-20 18   18.3   115.8            1     45          
1997-02-21 00   18.5   115.9            1     45          
1997-02-21 06   18.8   115.9            1     45          
1997-02-21 12   19.0   115.7            1     45          
1997-02-21 18   19.2   115.3            1     45          
1997-02-22 00   19.3   114.9            1     45          
1997-02-22 06   19.4   114.4            1     45          
1997-02-22 12   19.5   113.9            1     45          
1997-02-22 18   19.7   113.4            1     45          
1997-02-23 00   20.0   113.0            1     45          
1997-02-23 06   20.4   112.5            1     45          
1997-02-23 12   20.9   112.0            1     45          
1997-02-23 18   21.6   111.6            1     45          
1997-02-24 00   22.2   111.2            1     45          
1997-02-24 06   22.6   110.7            1     40          
1997-02-24 12   22.9   110.0                  35          
1997-02-24 18   23.1   109.2                  30          
1997-02-25 00   23.1   108.3                  25          
1997-02-25 06   23.1   107.5                  20          
1997-02-25 12   22.9   106.8                  20          
1997-02-25 18   22.6   106.2                  20          
1997-02-26 00   22.3   105.7                  15          
1997-02-26 06   21.9   105.2                  15          
Winds are 1-min average.

Tropical cyclone tracks developed by Michael Bath using data from the Joint Typhoon Warning Centre Best Tracks and Google Maps.


[Australian Severe Weather index] [Copyright Notice] [Email Contacts] [Search This Site] [Privacy Policy]
Document: tropical_cyclone_199727.htm Updated: 18 September 2016